sensor_id;sensor_type;location;lat;lon;timestamp;P1;durP1;ratioP1;P2;durP2;ratioP2
59273;SDS011;45044;41.572;24.730;2024-02-04T00:00:23;33.67;;;17.87;;
59273;SDS011;45044;41.572;24.730;2024-02-04T00:02:50;36.27;;;20.23;;
59273;SDS011;45044;41.572;24.730;2024-02-04T00:05:17;34.13;;;17.73;;
59273;SDS011;45044;41.572;24.730;2024-02-04T00:07:45;27.70;;;17.63;;
59273;SDS011;45044;41.572;24.730;2024-02-04T00:10:12;39.13;;;20.40;;
59273;SDS011;45044;41.572;24.730;2024-02-04T00:12:39;34.50;;;19.20;;
59273;SDS011;45044;41.572;24.730;2024-02-04T00:15:06;32.93;;;16.30;;
59273;SDS011;45044;41.572;24.730;2024-02-04T00:17:34;31.60;;;16.80;;
59273;SDS011;45044;41.572;24.730;2024-02-04T00:20:02;35.27;;;18.50;;
59273;SDS011;45044;41.572;24.730;2024-02-04T00:22:32;38.80;;;20.20;;
59273;SDS011;45044;41.572;24.730;2024-02-04T00:25:00;45.53;;;22.47;;
59273;SDS011;45044;41.572;24.730;2024-02-04T00:27:36;34.17;;;18.60;;
59273;SDS011;45044;41.572;24.730;2024-02-04T00:30:03;40.60;;;19.57;;
59273;SDS011;45044;41.572;24.730;2024-02-04T00:32:30;39.57;;;19.63;;
59273;SDS011;45044;41.572;24.730;2024-02-04T00:34:57;33.27;;;16.77;;
59273;SDS011;45044;41.572;24.730;2024-02-04T00:37:24;38.57;;;19.53;;
59273;SDS011;45044;41.572;24.730;2024-02-04T00:39:51;28.30;;;13.97;;
59273;SDS011;45044;41.572;24.730;2024-02-04T00:42:17;19.77;;;11.73;;
59273;SDS011;45044;41.572;24.730;2024-02-04T00:44:44;19.50;;;10.87;;
59273;SDS011;45044;41.572;24.730;2024-02-04T00:47:11;23.77;;;12.43;;
59273;SDS011;45044;41.572;24.730;2024-02-04T00:49:39;28.93;;;14.20;;
59273;SDS011;45044;41.572;24.730;2024-02-04T00:52:06;23.17;;;12.80;;
59273;SDS011;45044;41.572;24.730;2024-02-04T00:54:33;22.57;;;12.17;;
59273;SDS011;45044;41.572;24.730;2024-02-04T00:57:01;26.47;;;14.17;;
59273;SDS011;45044;41.572;24.730;2024-02-04T00:59:28;25.77;;;15.27;;
59273;SDS011;45044;41.572;24.730;2024-02-04T01:01:55;28.20;;;13.97;;
59273;SDS011;45044;41.572;24.730;2024-02-04T01:04:22;22.67;;;12.03;;
59273;SDS011;45044;41.572;24.730;2024-02-04T01:06:49;25.80;;;13.77;;
59273;SDS011;45044;41.572;24.730;2024-02-04T01:09:27;29.10;;;13.67;;
59273;SDS011;45044;41.572;24.730;2024-02-04T01:11:54;24.87;;;13.70;;
59273;SDS011;45044;41.572;24.730;2024-02-04T01:14:21;28.97;;;15.53;;
59273;SDS011;45044;41.572;24.730;2024-02-04T01:16:47;26.20;;;14.43;;
59273;SDS011;45044;41.572;24.730;2024-02-04T01:19:14;23.70;;;13.47;;
59273;SDS011;45044;41.572;24.730;2024-02-04T01:21:41;26.97;;;16.90;;
59273;SDS011;45044;41.572;24.730;2024-02-04T01:24:08;23.40;;;14.53;;
59273;SDS011;45044;41.572;24.730;2024-02-04T01:26:36;27.13;;;14.57;;
59273;SDS011;45044;41.572;24.730;2024-02-04T01:29:02;29.03;;;15.53;;
59273;SDS011;45044;41.572;24.730;2024-02-04T01:31:29;38.00;;;18.60;;
59273;SDS011;45044;41.572;24.730;2024-02-04T01:33:56;34.27;;;17.53;;
59273;SDS011;45044;41.572;24.730;2024-02-04T01:36:23;29.07;;;16.90;;
59273;SDS011;45044;41.572;24.730;2024-02-04T01:38:50;26.43;;;13.60;;
59273;SDS011;45044;41.572;24.730;2024-02-04T01:41:17;31.57;;;15.73;;
59273;SDS011;45044;41.572;24.730;2024-02-04T01:43:45;29.87;;;17.10;;
59273;SDS011;45044;41.572;24.730;2024-02-04T01:46:12;32.00;;;16.77;;
59273;SDS011;45044;41.572;24.730;2024-02-04T01:48:40;31.57;;;15.57;;
59273;SDS011;45044;41.572;24.730;2024-02-04T01:51:07;100.87;;;35.33;;
59273;SDS011;45044;41.572;24.730;2024-02-04T01:53:37;67.40;;;27.77;;
59273;SDS011;45044;41.572;24.730;2024-02-04T01:56:06;42.50;;;19.97;;
59273;SDS011;45044;41.572;24.730;2024-02-04T01:58:34;81.57;;;30.13;;
59273;SDS011;45044;41.572;24.730;2024-02-04T02:01:01;72.53;;;29.37;;
59273;SDS011;45044;41.572;24.730;2024-02-04T02:03:30;82.83;;;36.43;;
59273;SDS011;45044;41.572;24.730;2024-02-04T02:05:58;43.60;;;19.97;;
59273;SDS011;45044;41.572;24.730;2024-02-04T02:08:26;50.00;;;25.80;;
59273;SDS011;45044;41.572;24.730;2024-02-04T02:11:07;59.03;;;28.27;;
59273;SDS011;45044;41.572;24.730;2024-02-04T02:13:44;65.90;;;28.30;;
59273;SDS011;45044;41.572;24.730;2024-02-04T02:16:26;70.90;;;31.73;;
59273;SDS011;45044;41.572;24.730;2024-02-04T02:19:00;64.13;;;29.60;;
59273;SDS011;45044;41.572;24.730;2024-02-04T02:24:47;54.23;;;26.27;;
59273;SDS011;45044;41.572;24.730;2024-02-04T02:27:17;39.50;;;21.87;;
59273;SDS011;45044;41.572;24.730;2024-02-04T02:29:44;38.23;;;19.67;;
59273;SDS011;45044;41.572;24.730;2024-02-04T02:32:10;30.00;;;18.83;;
59273;SDS011;45044;41.572;24.730;2024-02-04T02:34:38;38.90;;;19.77;;
59273;SDS011;45044;41.572;24.730;2024-02-04T02:42:38;19.23;;;9.67;;
59273;SDS011;45044;41.572;24.730;2024-02-04T02:45:07;21.33;;;10.70;;
59273;SDS011;45044;41.572;24.730;2024-02-04T02:47:35;24.10;;;11.37;;
59273;SDS011;45044;41.572;24.730;2024-02-04T02:50:04;20.40;;;9.87;;
59273;SDS011;45044;41.572;24.730;2024-02-04T02:52:32;13.50;;;7.00;;
59273;SDS011;45044;41.572;24.730;2024-02-04T02:55:00;17.60;;;11.13;;
59273;SDS011;45044;41.572;24.730;2024-02-04T02:57:27;64.20;;;24.37;;
59273;SDS011;45044;41.572;24.730;2024-02-04T02:59:53;44.07;;;19.60;;
59273;SDS011;45044;41.572;24.730;2024-02-04T03:02:20;33.33;;;14.43;;
59273;SDS011;45044;41.572;24.730;2024-02-04T03:04:47;29.90;;;19.77;;
59273;SDS011;45044;41.572;24.730;2024-02-04T03:07:14;29.80;;;15.33;;
59273;SDS011;45044;41.572;24.730;2024-02-04T03:09:41;40.23;;;18.83;;
59273;SDS011;45044;41.572;24.730;2024-02-04T03:12:07;65.20;;;25.77;;
59273;SDS011;45044;41.572;24.730;2024-02-04T03:14:34;59.43;;;24.93;;
59273;SDS011;45044;41.572;24.730;2024-02-04T03:17:01;56.23;;;22.40;;
59273;SDS011;45044;41.572;24.730;2024-02-04T03:19:27;38.27;;;17.53;;
59273;SDS011;45044;41.572;24.730;2024-02-04T03:21:54;31.67;;;15.93;;
59273;SDS011;45044;41.572;24.730;2024-02-04T03:24:21;41.13;;;19.33;;
59273;SDS011;45044;41.572;24.730;2024-02-04T03:26:48;12.97;;;6.67;;
59273;SDS011;45044;41.572;24.730;2024-02-04T03:29:15;32.07;;;14.27;;
59273;SDS011;45044;41.572;24.730;2024-02-04T03:31:42;38.60;;;19.67;;
59273;SDS011;45044;41.572;24.730;2024-02-04T03:34:08;46.53;;;22.37;;
59273;SDS011;45044;41.572;24.730;2024-02-04T03:36:36;32.07;;;16.97;;
59273;SDS011;45044;41.572;24.730;2024-02-04T03:39:03;36.47;;;17.60;;
59273;SDS011;45044;41.572;24.730;2024-02-04T03:41:30;30.73;;;15.83;;
59273;SDS011;45044;41.572;24.730;2024-02-04T03:43:57;29.10;;;14.17;;
59273;SDS011;45044;41.572;24.730;2024-02-04T03:46:23;21.27;;;11.57;;
59273;SDS011;45044;41.572;24.730;2024-02-04T03:48:50;18.10;;;10.57;;
59273;SDS011;45044;41.572;24.730;2024-02-04T03:51:20;20.97;;;10.63;;
59273;SDS011;45044;41.572;24.730;2024-02-04T03:53:47;16.77;;;8.47;;
59273;SDS011;45044;41.572;24.730;2024-02-04T03:56:15;21.93;;;11.03;;
59273;SDS011;45044;41.572;24.730;2024-02-04T03:58:42;18.53;;;9.23;;
59273;SDS011;45044;41.572;24.730;2024-02-04T04:01:09;18.40;;;10.43;;
59273;SDS011;45044;41.572;24.730;2024-02-04T04:03:40;20.23;;;10.80;;
59273;SDS011;45044;41.572;24.730;2024-02-04T04:06:09;20.10;;;9.43;;
59273;SDS011;45044;41.572;24.730;2024-02-04T04:08:37;18.87;;;10.07;;
59273;SDS011;45044;41.572;24.730;2024-02-04T04:11:04;17.00;;;8.27;;
59273;SDS011;45044;41.572;24.730;2024-02-04T04:13:33;19.70;;;9.67;;
59273;SDS011;45044;41.572;24.730;2024-02-04T04:16:02;20.03;;;11.13;;
59273;SDS011;45044;41.572;24.730;2024-02-04T04:18:30;22.03;;;11.47;;
59273;SDS011;45044;41.572;24.730;2024-02-04T04:20:57;25.43;;;14.77;;
59273;SDS011;45044;41.572;24.730;2024-02-04T04:23:23;32.20;;;16.57;;
59273;SDS011;45044;41.572;24.730;2024-02-04T04:25:50;37.97;;;18.30;;
59273;SDS011;45044;41.572;24.730;2024-02-04T04:28:17;32.40;;;17.33;;
59273;SDS011;45044;41.572;24.730;2024-02-04T04:30:43;43.43;;;20.87;;
59273;SDS011;45044;41.572;24.730;2024-02-04T04:33:10;64.70;;;32.47;;
59273;SDS011;45044;41.572;24.730;2024-02-04T04:35:39;30.80;;;15.10;;
59273;SDS011;45044;41.572;24.730;2024-02-04T04:38:05;28.60;;;16.83;;
59273;SDS011;45044;41.572;24.730;2024-02-04T04:40:32;30.97;;;16.43;;
59273;SDS011;45044;41.572;24.730;2024-02-04T04:42:59;27.50;;;15.00;;
59273;SDS011;45044;41.572;24.730;2024-02-04T04:45:26;27.53;;;14.87;;
59273;SDS011;45044;41.572;24.730;2024-02-04T04:47:53;30.73;;;15.73;;
59273;SDS011;45044;41.572;24.730;2024-02-04T04:50:20;19.10;;;10.63;;
59273;SDS011;45044;41.572;24.730;2024-02-04T04:52:47;20.43;;;11.27;;
59273;SDS011;45044;41.572;24.730;2024-02-04T04:55:14;16.83;;;10.27;;
59273;SDS011;45044;41.572;24.730;2024-02-04T04:57:41;21.43;;;11.20;;
59273;SDS011;45044;41.572;24.730;2024-02-04T05:00:08;18.70;;;10.77;;
59273;SDS011;45044;41.572;24.730;2024-02-04T05:02:37;23.33;;;12.70;;
59273;SDS011;45044;41.572;24.730;2024-02-04T05:05:03;19.30;;;11.03;;
59273;SDS011;45044;41.572;24.730;2024-02-04T05:07:36;21.60;;;12.53;;
59273;SDS011;45044;41.572;24.730;2024-02-04T05:10:03;20.30;;;13.23;;
59273;SDS011;45044;41.572;24.730;2024-02-04T05:12:32;17.67;;;10.57;;
59273;SDS011;45044;41.572;24.730;2024-02-04T05:14:59;18.07;;;12.07;;
59273;SDS011;45044;41.572;24.730;2024-02-04T05:17:27;18.93;;;13.07;;
59273;SDS011;45044;41.572;24.730;2024-02-04T05:19:54;22.83;;;13.83;;
59273;SDS011;45044;41.572;24.730;2024-02-04T05:22:21;23.33;;;13.73;;
59273;SDS011;45044;41.572;24.730;2024-02-04T05:24:48;31.93;;;17.00;;
59273;SDS011;45044;41.572;24.730;2024-02-04T05:27:14;24.03;;;14.43;;
59273;SDS011;45044;41.572;24.730;2024-02-04T05:29:41;23.00;;;14.57;;
59273;SDS011;45044;41.572;24.730;2024-02-04T05:32:08;29.43;;;16.93;;
59273;SDS011;45044;41.572;24.730;2024-02-04T05:34:36;34.13;;;18.37;;
59273;SDS011;45044;41.572;24.730;2024-02-04T05:37:03;38.73;;;22.70;;
59273;SDS011;45044;41.572;24.730;2024-02-04T05:39:30;47.03;;;27.77;;
59273;SDS011;45044;41.572;24.730;2024-02-04T05:41:59;37.97;;;23.23;;
59273;SDS011;45044;41.572;24.730;2024-02-04T05:44:25;36.80;;;20.63;;
59273;SDS011;45044;41.572;24.730;2024-02-04T05:46:52;38.43;;;21.37;;
59273;SDS011;45044;41.572;24.730;2024-02-04T05:49:19;38.50;;;25.07;;
59273;SDS011;45044;41.572;24.730;2024-02-04T05:51:46;45.23;;;27.70;;
59273;SDS011;45044;41.572;24.730;2024-02-04T05:54:13;32.57;;;20.23;;
59273;SDS011;45044;41.572;24.730;2024-02-04T05:56:40;48.67;;;27.80;;
59273;SDS011;45044;41.572;24.730;2024-02-04T05:59:07;25.77;;;15.73;;
59273;SDS011;45044;41.572;24.730;2024-02-04T06:01:33;32.43;;;18.23;;
59273;SDS011;45044;41.572;24.730;2024-02-04T06:04:00;40.70;;;23.70;;
59273;SDS011;45044;41.572;24.730;2024-02-04T06:06:27;38.43;;;20.77;;
59273;SDS011;45044;41.572;24.730;2024-02-04T06:08:54;37.57;;;24.00;;
59273;SDS011;45044;41.572;24.730;2024-02-04T06:11:21;44.50;;;28.37;;
59273;SDS011;45044;41.572;24.730;2024-02-04T06:13:47;38.13;;;24.13;;
59273;SDS011;45044;41.572;24.730;2024-02-04T06:16:16;50.00;;;29.40;;
59273;SDS011;45044;41.572;24.730;2024-02-04T06:18:43;83.87;;;44.40;;
59273;SDS011;45044;41.572;24.730;2024-02-04T06:21:10;46.23;;;27.40;;
59273;SDS011;45044;41.572;24.730;2024-02-04T06:23:37;57.87;;;30.43;;
59273;SDS011;45044;41.572;24.730;2024-02-04T06:26:06;33.53;;;23.43;;
59273;SDS011;45044;41.572;24.730;2024-02-04T06:28:34;28.50;;;16.53;;
59273;SDS011;45044;41.572;24.730;2024-02-04T06:31:10;44.03;;;27.77;;
59273;SDS011;45044;41.572;24.730;2024-02-04T06:33:39;100.63;;;54.27;;
59273;SDS011;45044;41.572;24.730;2024-02-04T06:36:17;119.77;;;59.33;;
59273;SDS011;45044;41.572;24.730;2024-02-04T06:38:50;76.83;;;44.33;;
59273;SDS011;45044;41.572;24.730;2024-02-04T06:41:26;70.53;;;40.93;;
59273;SDS011;45044;41.572;24.730;2024-02-04T06:43:59;57.77;;;33.80;;
59273;SDS011;45044;41.572;24.730;2024-02-04T06:46:29;73.80;;;42.87;;
59273;SDS011;45044;41.572;24.730;2024-02-04T06:48:56;66.53;;;38.33;;
59273;SDS011;45044;41.572;24.730;2024-02-04T06:51:23;64.93;;;38.97;;
59273;SDS011;45044;41.572;24.730;2024-02-04T06:53:50;71.57;;;42.50;;
59273;SDS011;45044;41.572;24.730;2024-02-04T06:56:17;82.33;;;45.97;;
59273;SDS011;45044;41.572;24.730;2024-02-04T06:58:44;80.80;;;46.80;;
59273;SDS011;45044;41.572;24.730;2024-02-04T07:01:11;80.63;;;46.30;;
59273;SDS011;45044;41.572;24.730;2024-02-04T07:03:38;83.37;;;44.93;;
59273;SDS011;45044;41.572;24.730;2024-02-04T07:06:05;91.67;;;49.20;;
59273;SDS011;45044;41.572;24.730;2024-02-04T07:08:33;90.00;;;51.80;;
59273;SDS011;45044;41.572;24.730;2024-02-04T07:11:01;105.13;;;54.97;;
59273;SDS011;45044;41.572;24.730;2024-02-04T07:13:29;87.07;;;52.27;;
59273;SDS011;45044;41.572;24.730;2024-02-04T07:15:57;86.77;;;53.73;;
59273;SDS011;45044;41.572;24.730;2024-02-04T07:18:24;87.57;;;52.23;;
59273;SDS011;45044;41.572;24.730;2024-02-04T07:20:51;72.17;;;43.63;;
59273;SDS011;45044;41.572;24.730;2024-02-04T07:23:19;67.90;;;41.57;;
59273;SDS011;45044;41.572;24.730;2024-02-04T07:25:46;50.30;;;30.27;;
59273;SDS011;45044;41.572;24.730;2024-02-04T07:28:13;54.30;;;32.73;;
59273;SDS011;45044;41.572;24.730;2024-02-04T07:30:40;79.87;;;46.77;;
59273;SDS011;45044;41.572;24.730;2024-02-04T07:33:06;77.10;;;49.13;;
59273;SDS011;45044;41.572;24.730;2024-02-04T07:35:34;80.17;;;50.03;;
59273;SDS011;45044;41.572;24.730;2024-02-04T07:38:00;89.23;;;50.73;;
59273;SDS011;45044;41.572;24.730;2024-02-04T07:40:27;71.27;;;44.13;;
59273;SDS011;45044;41.572;24.730;2024-02-04T07:42:54;73.27;;;45.20;;
59273;SDS011;45044;41.572;24.730;2024-02-04T07:45:21;86.20;;;52.97;;
59273;SDS011;45044;41.572;24.730;2024-02-04T07:47:48;84.47;;;54.07;;
59273;SDS011;45044;41.572;24.730;2024-02-04T07:50:15;100.43;;;60.40;;
59273;SDS011;45044;41.572;24.730;2024-02-04T07:52:42;78.55;;;51.97;;
59273;SDS011;45044;41.572;24.730;2024-02-04T07:55:10;87.33;;;55.47;;
59273;SDS011;45044;41.572;24.730;2024-02-04T07:57:37;85.47;;;59.08;;
59273;SDS011;45044;41.572;24.730;2024-02-04T08:00:04;97.97;;;62.03;;
59273;SDS011;45044;41.572;24.730;2024-02-04T08:02:34;74.88;;;49.53;;
59273;SDS011;45044;41.572;24.730;2024-02-04T08:05:01;69.32;;;46.83;;
59273;SDS011;45044;41.572;24.730;2024-02-04T08:07:28;68.82;;;47.28;;
59273;SDS011;45044;41.572;24.730;2024-02-04T08:09:55;105.95;;;68.50;;
59273;SDS011;45044;41.572;24.730;2024-02-04T08:12:22;69.45;;;47.97;;
59273;SDS011;45044;41.572;24.730;2024-02-04T08:14:49;74.70;;;49.65;;
59273;SDS011;45044;41.572;24.730;2024-02-04T08:17:16;65.18;;;43.92;;
59273;SDS011;45044;41.572;24.730;2024-02-04T08:19:43;72.10;;;50.63;;
59273;SDS011;45044;41.572;24.730;2024-02-04T08:22:10;71.47;;;48.97;;
59273;SDS011;45044;41.572;24.730;2024-02-04T08:24:38;49.30;;;30.85;;
59273;SDS011;45044;41.572;24.730;2024-02-04T08:27:05;62.55;;;40.15;;
59273;SDS011;45044;41.572;24.730;2024-02-04T08:29:32;71.03;;;42.55;;
59273;SDS011;45044;41.572;24.730;2024-02-04T08:31:59;63.08;;;39.05;;
59273;SDS011;45044;41.572;24.730;2024-02-04T08:34:25;49.60;;;33.95;;
59273;SDS011;45044;41.572;24.730;2024-02-04T08:36:53;50.08;;;31.38;;
59273;SDS011;45044;41.572;24.730;2024-02-04T08:39:20;35.22;;;22.48;;
59273;SDS011;45044;41.572;24.730;2024-02-04T08:41:47;48.08;;;32.67;;
59273;SDS011;45044;41.572;24.730;2024-02-04T08:44:16;54.50;;;33.85;;
59273;SDS011;45044;41.572;24.730;2024-02-04T08:47:00;55.70;;;36.40;;
59273;SDS011;45044;41.572;24.730;2024-02-04T08:49:27;50.97;;;33.03;;
59273;SDS011;45044;41.572;24.730;2024-02-04T08:51:55;23.85;;;16.95;;
59273;SDS011;45044;41.572;24.730;2024-02-04T08:54:22;37.28;;;26.25;;
59273;SDS011;45044;41.572;24.730;2024-02-04T08:56:49;37.15;;;23.10;;
59273;SDS011;45044;41.572;24.730;2024-02-04T08:59:15;28.38;;;19.30;;
59273;SDS011;45044;41.572;24.730;2024-02-04T09:01:43;26.55;;;18.83;;
59273;SDS011;45044;41.572;24.730;2024-02-04T09:04:09;11.73;;;7.15;;
59273;SDS011;45044;41.572;24.730;2024-02-04T09:06:36;17.02;;;11.15;;
59273;SDS011;45044;41.572;24.730;2024-02-04T09:09:04;13.60;;;8.32;;
59273;SDS011;45044;41.572;24.730;2024-02-04T09:11:31;25.30;;;15.75;;
59273;SDS011;45044;41.572;24.730;2024-02-04T09:13:58;47.58;;;27.20;;
59273;SDS011;45044;41.572;24.730;2024-02-04T09:16:24;27.00;;;17.33;;
59273;SDS011;45044;41.572;24.730;2024-02-04T09:18:51;21.88;;;11.63;;
59273;SDS011;45044;41.572;24.730;2024-02-04T09:21:18;19.33;;;11.23;;
59273;SDS011;45044;41.572;24.730;2024-02-04T09:23:45;123.05;;;58.45;;
59273;SDS011;45044;41.572;24.730;2024-02-04T09:26:14;15.93;;;11.48;;
59273;SDS011;45044;41.572;24.730;2024-02-04T09:28:52;34.63;;;23.33;;
59273;SDS011;45044;41.572;24.730;2024-02-04T09:31:19;29.10;;;19.15;;
59273;SDS011;45044;41.572;24.730;2024-02-04T09:33:46;9.23;;;5.43;;
59273;SDS011;45044;41.572;24.730;2024-02-04T09:36:14;11.82;;;7.07;;
59273;SDS011;45044;41.572;24.730;2024-02-04T09:38:42;23.80;;;14.65;;
59273;SDS011;45044;41.572;24.730;2024-02-04T09:41:09;22.88;;;15.98;;
59273;SDS011;45044;41.572;24.730;2024-02-04T09:43:38;16.27;;;10.40;;
59273;SDS011;45044;41.572;24.730;2024-02-04T09:46:08;36.00;;;22.95;;
59273;SDS011;45044;41.572;24.730;2024-02-04T09:48:35;24.33;;;14.27;;
59273;SDS011;45044;41.572;24.730;2024-02-04T09:51:05;5.78;;;2.33;;
59273;SDS011;45044;41.572;24.730;2024-02-04T09:53:34;17.27;;;11.32;;
59273;SDS011;45044;41.572;24.730;2024-02-04T09:56:02;7.78;;;4.20;;
59273;SDS011;45044;41.572;24.730;2024-02-04T09:58:30;6.93;;;3.15;;
59273;SDS011;45044;41.572;24.730;2024-02-04T10:00:57;6.55;;;2.78;;
59273;SDS011;45044;41.572;24.730;2024-02-04T10:03:30;4.63;;;1.90;;
59273;SDS011;45044;41.572;24.730;2024-02-04T10:05:57;6.50;;;2.80;;
59273;SDS011;45044;41.572;24.730;2024-02-04T10:08:24;6.72;;;3.88;;
59273;SDS011;45044;41.572;24.730;2024-02-04T10:10:52;5.15;;;2.78;;
59273;SDS011;45044;41.572;24.730;2024-02-04T10:13:20;8.15;;;4.45;;
59273;SDS011;45044;41.572;24.730;2024-02-04T10:15:49;7.25;;;3.78;;
59273;SDS011;45044;41.572;24.730;2024-02-04T10:18:16;6.88;;;3.10;;
59273;SDS011;45044;41.572;24.730;2024-02-04T10:20:43;2.45;;;1.20;;
59273;SDS011;45044;41.572;24.730;2024-02-04T10:23:10;3.22;;;1.75;;
59273;SDS011;45044;41.572;24.730;2024-02-04T10:25:38;12.35;;;6.35;;
59273;SDS011;45044;41.572;24.730;2024-02-04T10:28:05;8.88;;;5.00;;
59273;SDS011;45044;41.572;24.730;2024-02-04T10:30:33;15.55;;;8.60;;
59273;SDS011;45044;41.572;24.730;2024-02-04T10:33:01;3.28;;;1.85;;
59273;SDS011;45044;41.572;24.730;2024-02-04T10:35:27;17.52;;;8.20;;
59273;SDS011;45044;41.572;24.730;2024-02-04T10:37:59;8.93;;;4.40;;
59273;SDS011;45044;41.572;24.730;2024-02-04T10:40:26;8.93;;;5.22;;
59273;SDS011;45044;41.572;24.730;2024-02-04T10:42:54;8.77;;;4.53;;
59273;SDS011;45044;41.572;24.730;2024-02-04T10:45:26;6.65;;;3.40;;
59273;SDS011;45044;41.572;24.730;2024-02-04T10:48:02;4.60;;;2.22;;
59273;SDS011;45044;41.572;24.730;2024-02-04T10:50:35;4.63;;;2.70;;
59273;SDS011;45044;41.572;24.730;2024-02-04T10:53:04;7.10;;;3.85;;
59273;SDS011;45044;41.572;24.730;2024-02-04T10:55:35;9.45;;;5.28;;
59273;SDS011;45044;41.572;24.730;2024-02-04T10:58:08;6.28;;;2.72;;
59273;SDS011;45044;41.572;24.730;2024-02-04T11:00:38;7.30;;;3.83;;
59273;SDS011;45044;41.572;24.730;2024-02-04T11:03:07;9.90;;;5.60;;
59273;SDS011;45044;41.572;24.730;2024-02-04T11:05:35;1.52;;;0.80;;
59273;SDS011;45044;41.572;24.730;2024-02-04T11:08:03;7.43;;;3.97;;
59273;SDS011;45044;41.572;24.730;2024-02-04T11:10:31;5.93;;;3.03;;
59273;SDS011;45044;41.572;24.730;2024-02-04T11:12:58;8.23;;;3.67;;
59273;SDS011;45044;41.572;24.730;2024-02-04T11:15:28;3.08;;;1.30;;
59273;SDS011;45044;41.572;24.730;2024-02-04T11:21:28;6.57;;;3.53;;
59273;SDS011;45044;41.572;24.730;2024-02-04T11:26:48;9.50;;;5.20;;
59273;SDS011;45044;41.572;24.730;2024-02-04T11:29:15;7.50;;;3.42;;
59273;SDS011;45044;41.572;24.730;2024-02-04T11:31:42;6.13;;;3.25;;
59273;SDS011;45044;41.572;24.730;2024-02-04T11:34:13;5.57;;;2.78;;
59273;SDS011;45044;41.572;24.730;2024-02-04T11:36:40;4.88;;;1.65;;
59273;SDS011;45044;41.572;24.730;2024-02-04T11:39:12;6.72;;;3.65;;
59273;SDS011;45044;41.572;24.730;2024-02-04T11:41:49;5.18;;;2.63;;
59273;SDS011;45044;41.572;24.730;2024-02-04T11:44:23;5.82;;;2.53;;
59273;SDS011;45044;41.572;24.730;2024-02-04T11:46:52;4.70;;;2.30;;
59273;SDS011;45044;41.572;24.730;2024-02-04T11:49:24;6.47;;;2.75;;
59273;SDS011;45044;41.572;24.730;2024-02-04T11:51:55;1.65;;;0.95;;
59273;SDS011;45044;41.572;24.730;2024-02-04T11:54:26;6.22;;;3.33;;
59273;SDS011;45044;41.572;24.730;2024-02-04T11:56:54;7.13;;;3.13;;
59273;SDS011;45044;41.572;24.730;2024-02-04T11:59:23;8.05;;;3.75;;
59273;SDS011;45044;41.572;24.730;2024-02-04T12:01:54;5.88;;;2.90;;
59273;SDS011;45044;41.572;24.730;2024-02-04T12:04:22;5.15;;;2.35;;
59273;SDS011;45044;41.572;24.730;2024-02-04T12:06:49;6.82;;;4.63;;
59273;SDS011;45044;41.572;24.730;2024-02-04T12:09:19;1.55;;;0.90;;
59273;SDS011;45044;41.572;24.730;2024-02-04T12:11:49;7.45;;;3.95;;
59273;SDS011;45044;41.572;24.730;2024-02-04T12:14:18;11.02;;;5.88;;
59273;SDS011;45044;41.572;24.730;2024-02-04T12:16:45;5.60;;;2.15;;
59273;SDS011;45044;41.572;24.730;2024-02-04T12:19:12;6.72;;;3.58;;
59273;SDS011;45044;41.572;24.730;2024-02-04T12:21:44;5.15;;;2.75;;
59273;SDS011;45044;41.572;24.730;2024-02-04T12:24:12;5.72;;;2.88;;
59273;SDS011;45044;41.572;24.730;2024-02-04T12:26:39;6.95;;;3.33;;
59273;SDS011;45044;41.572;24.730;2024-02-04T12:29:06;4.82;;;2.13;;
59273;SDS011;45044;41.572;24.730;2024-02-04T12:31:33;5.55;;;3.47;;
59273;SDS011;45044;41.572;24.730;2024-02-04T12:34:00;9.10;;;4.63;;
59273;SDS011;45044;41.572;24.730;2024-02-04T12:36:30;7.18;;;4.40;;
59273;SDS011;45044;41.572;24.730;2024-02-04T12:38:58;2.40;;;1.52;;
59273;SDS011;45044;41.572;24.730;2024-02-04T12:41:27;6.50;;;2.97;;
59273;SDS011;45044;41.572;24.730;2024-02-04T12:43:57;4.80;;;1.92;;
59273;SDS011;45044;41.572;24.730;2024-02-04T12:46:29;7.22;;;3.60;;
59273;SDS011;45044;41.572;24.730;2024-02-04T12:48:57;5.85;;;2.60;;
59273;SDS011;45044;41.572;24.730;2024-02-04T12:51:31;3.73;;;2.17;;
59273;SDS011;45044;41.572;24.730;2024-02-04T12:54:09;7.97;;;3.80;;
59273;SDS011;45044;41.572;24.730;2024-02-04T12:56:49;10.65;;;5.90;;
59273;SDS011;45044;41.572;24.730;2024-02-04T12:59:26;9.48;;;6.18;;
59273;SDS011;45044;41.572;24.730;2024-02-04T13:02:03;4.35;;;2.47;;
59273;SDS011;45044;41.572;24.730;2024-02-04T13:04:35;11.70;;;5.70;;
59273;SDS011;45044;41.572;24.730;2024-02-04T13:07:10;12.75;;;6.90;;
59273;SDS011;45044;41.572;24.730;2024-02-04T13:09:43;4.38;;;2.30;;
59273;SDS011;45044;41.572;24.730;2024-02-04T13:12:14;16.63;;;9.40;;
59273;SDS011;45044;41.572;24.730;2024-02-04T13:14:42;12.07;;;7.68;;
59273;SDS011;45044;41.572;24.730;2024-02-04T13:17:10;5.78;;;2.30;;
59273;SDS011;45044;41.572;24.730;2024-02-04T13:19:38;9.95;;;4.50;;
59273;SDS011;45044;41.572;24.730;2024-02-04T13:22:05;4.07;;;2.05;;
59273;SDS011;45044;41.572;24.730;2024-02-04T13:24:33;6.25;;;2.78;;
59273;SDS011;45044;41.572;24.730;2024-02-04T13:27:01;7.50;;;4.15;;
59273;SDS011;45044;41.572;24.730;2024-02-04T13:29:30;8.50;;;4.47;;
59273;SDS011;45044;41.572;24.730;2024-02-04T13:31:56;5.47;;;3.65;;
59273;SDS011;45044;41.572;24.730;2024-02-04T13:34:25;6.93;;;2.63;;
59273;SDS011;45044;41.572;24.730;2024-02-04T13:36:51;5.55;;;3.30;;
59273;SDS011;45044;41.572;24.730;2024-02-04T13:39:19;36.75;;;27.15;;
59273;SDS011;45044;41.572;24.730;2024-02-04T13:41:45;17.60;;;14.00;;
59273;SDS011;45044;41.572;24.730;2024-02-04T13:44:13;13.05;;;7.82;;
59273;SDS011;45044;41.572;24.730;2024-02-04T13:46:40;6.10;;;3.10;;
59273;SDS011;45044;41.572;24.730;2024-02-04T13:49:09;8.95;;;3.45;;
59273;SDS011;45044;41.572;24.730;2024-02-04T13:51:39;4.85;;;2.25;;
59273;SDS011;45044;41.572;24.730;2024-02-04T13:54:11;2.83;;;1.80;;
59273;SDS011;45044;41.572;24.730;2024-02-04T13:56:44;2.88;;;1.30;;
59273;SDS011;45044;41.572;24.730;2024-02-04T13:59:12;4.10;;;2.15;;
59273;SDS011;45044;41.572;24.730;2024-02-04T14:01:39;3.00;;;1.50;;
59273;SDS011;45044;41.572;24.730;2024-02-04T14:04:06;4.30;;;1.90;;
59273;SDS011;45044;41.572;24.730;2024-02-04T14:06:37;19.75;;;8.75;;
59273;SDS011;45044;41.572;24.730;2024-02-04T14:09:04;19.58;;;9.27;;
59273;SDS011;45044;41.572;24.730;2024-02-04T14:11:32;22.02;;;11.15;;
59273;SDS011;45044;41.572;24.730;2024-02-04T14:14:00;13.05;;;5.55;;
59273;SDS011;45044;41.572;24.730;2024-02-04T14:16:29;8.45;;;4.55;;
59273;SDS011;45044;41.572;24.730;2024-02-04T14:18:56;8.32;;;3.63;;
59273;SDS011;45044;41.572;24.730;2024-02-04T14:21:27;15.18;;;9.23;;
59273;SDS011;45044;41.572;24.730;2024-02-04T14:23:54;10.05;;;6.00;;
59273;SDS011;45044;41.572;24.730;2024-02-04T14:26:21;14.90;;;6.75;;
59273;SDS011;45044;41.572;24.730;2024-02-04T14:28:50;11.60;;;5.10;;
59273;SDS011;45044;41.572;24.730;2024-02-04T14:31:18;8.45;;;4.15;;
59273;SDS011;45044;41.572;24.730;2024-02-04T14:33:45;11.30;;;6.32;;
59273;SDS011;45044;41.572;24.730;2024-02-04T14:36:17;9.30;;;4.43;;